Time;durP1;ratioP1;P1;durP2;ratioP2;P2;SDS_P1;SDS_P2;PMS_P1;PMS_P2;Temp;Humidity;BMP_temperature;BMP_pressure;BME280_temperature;BME280_humidity;BME280_pressure;Samples;Min_cycle;Max_cycle;Signal;HPM_P1;HPM_P2
2022/08/27 00:00:16;;;;;;;25.38;17.77;;;18.60;99.90;;;;;;5090228;28;20016;-54
2022/08/27 00:02:42;;;;;;;25.95;17.20;;;18.60;99.90;;;;;;5089630;28;20049;-55
2022/08/27 00:05:10;;;;;;;23.83;17.20;;;18.60;99.90;;;;;;5090180;28;20028;-53
2022/08/27 00:07:36;;;;;;;22.73;17.70;;;18.60;99.90;;;;;;5090514;28;20039;-55
2022/08/27 00:10:04;;;;;;;27.55;19.55;;;18.50;99.90;;;;;;5078484;28;20085;-55
2022/08/27 00:12:29;;;;;;;26.85;20.23;;;18.50;99.90;;;;;;5088502;28;20043;-55
2022/08/27 00:14:55;;;;;;;29.92;19.77;;;18.50;99.90;;;;;;5089999;28;20020;-55
2022/08/27 00:17:21;;;;;;;31.35;20.13;;;18.50;99.90;;;;;;5089689;28;20020;-54
2022/08/27 00:19:46;;;;;;;27.27;18.83;;;18.50;99.90;;;;;;5089867;28;20023;-54
2022/08/27 00:22:12;;;;;;;32.65;21.58;;;18.60;99.90;;;;;;5089258;28;20036;-54
2022/08/27 00:24:37;;;;;;;29.48;22.52;;;18.60;99.90;;;;;;5089824;28;20451;-54
2022/08/27 00:27:03;;;;;;;32.60;22.00;;;18.60;99.90;;;;;;5089751;28;20103;-55
2022/08/27 00:29:29;;;;;;;37.70;24.67;;;18.60;99.90;;;;;;5088435;28;20069;-55
2022/08/27 00:31:55;;;;;;;37.90;25.77;;;18.60;99.90;;;;;;5089106;28;20389;-54
2022/08/27 00:34:21;;;;;;;44.85;25.42;;;18.60;99.90;;;;;;5089714;28;20103;-54
2022/08/27 00:36:47;;;;;;;35.63;25.30;;;18.60;99.90;;;;;;5089793;28;20030;-54
2022/08/27 00:39:13;;;;;;;36.30;24.80;;;18.60;99.90;;;;;;5085753;28;20107;-54
2022/08/27 00:41:40;;;;;;;43.47;29.08;;;18.60;99.90;;;;;;5081181;28;20035;-54
2022/08/27 00:44:06;;;;;;;33.83;24.45;;;18.60;99.90;;;;;;5088215;28;20031;-54
2022/08/27 00:46:44;;;;;;;43.58;29.35;;;18.70;99.90;;;;;;5089202;28;20422;-54
2022/08/27 00:49:27;;;;;;;43.83;30.27;;;18.70;99.90;;;;;;5087981;28;20024;-54
2022/08/27 00:52:04;;;;;;;45.30;29.48;;;18.70;99.90;;;;;;5088408;28;20085;-54
2022/08/27 00:54:31;;;;;;;43.92;30.52;;;18.70;99.90;;;;;;5089092;28;20061;-55
2022/08/27 00:56:58;;;;;;;52.58;33.47;;;18.80;99.90;;;;;;5089311;28;20450;-54
2022/08/27 00:59:28;;;;;;;47.67;32.40;;;18.80;99.90;;;;;;5089121;28;20059;-54
2022/08/27 01:04:40;;;;;;;46.13;28.35;;;18.90;99.90;;;;;;5089520;28;20043;-53
2022/08/27 01:07:08;;;;;;;54.63;33.95;;;18.90;99.90;;;;;;5088981;28;20077;-54
2022/08/27 01:09:34;;;;;;;49.90;32.10;;;18.90;99.90;;;;;;5078897;28;20186;-55
2022/08/27 01:11:59;;;;;;;55.45;33.92;;;18.90;99.90;;;;;;5079889;28;20107;-55
2022/08/27 01:14:26;;;;;;;46.20;31.20;;;19.00;99.90;;;;;;5087594;28;20574;-54
2022/08/27 01:16:55;;;;;;;53.60;34.58;;;19.00;99.90;;;;;;5089068;28;20028;-53
2022/08/27 01:19:36;;;;;;;55.13;36.67;;;19.00;99.90;;;;;;5087565;28;20407;-54
2022/08/27 01:22:09;;;;;;;52.47;35.58;;;19.00;99.90;;;;;;5088306;28;20028;-54
2022/08/27 01:24:47;;;;;;;56.30;36.63;;;19.00;99.90;;;;;;5089040;28;20212;-55
2022/08/27 01:27:18;;;;;;;57.33;36.90;;;19.10;99.90;;;;;;5089121;28;20019;-54
2022/08/27 01:29:44;;;;;;;54.75;36.03;;;19.10;99.90;;;;;;5089084;28;20023;-54
2022/08/27 01:32:14;;;;;;;57.47;37.80;;;19.00;99.90;;;;;;5087288;28;20016;-54
2022/08/27 01:34:40;;;;;;;55.67;36.22;;;19.10;99.90;;;;;;5089122;28;20016;-54
2022/08/27 01:37:06;;;;;;;49.50;33.70;;;19.10;99.90;;;;;;5088991;28;20073;-54
2022/08/27 01:39:37;;;;;;;63.03;40.40;;;19.20;99.90;;;;;;5083551;28;20105;-54
2022/08/27 01:42:06;;;;;;;61.75;37.10;;;19.20;99.90;;;;;;5079831;28;20020;-54
2022/08/27 01:44:49;;;;;;;61.55;37.13;;;19.20;99.90;;;;;;5088615;28;20059;-54
2022/08/27 01:47:16;;;;;;;58.20;38.10;;;19.20;99.90;;;;;;5088575;28;20452;-54
2022/08/27 01:49:42;;;;;;;55.40;37.40;;;19.20;99.90;;;;;;5088425;28;20031;-53
2022/08/27 01:52:07;;;;;;;50.15;35.25;;;19.20;99.90;;;;;;5087773;28;20032;-54
2022/08/27 01:54:33;;;;;;;53.58;36.97;;;19.20;99.90;;;;;;5088302;28;20070;-54
2022/08/27 01:56:59;;;;;;;61.88;38.97;;;19.20;99.90;;;;;;5088765;28;20024;-54
2022/08/27 01:59:24;;;;;;;49.13;34.53;;;19.30;99.90;;;;;;5088740;28;20077;-53
2022/08/27 02:01:52;;;;;;;61.65;38.92;;;19.30;99.90;;;;;;5087745;28;20028;-54
2022/08/27 02:04:18;;;;;;;58.00;38.60;;;19.30;99.90;;;;;;5090305;28;20550;-54
2022/08/27 02:06:43;;;;;;;58.00;38.42;;;19.30;99.90;;;;;;5092423;28;20063;-54
2022/08/27 02:09:09;;;;;;;61.22;37.95;;;19.30;99.90;;;;;;5088055;28;20023;-55
2022/08/27 02:11:34;;;;;;;55.22;38.50;;;19.30;99.90;;;;;;5081448;28;20467;-54
2022/08/27 02:14:00;;;;;;;59.45;38.13;;;19.30;99.90;;;;;;5092338;28;20081;-54
2022/08/27 02:16:25;;;;;;;61.60;39.20;;;19.30;99.90;;;;;;5092214;28;20055;-54
2022/08/27 02:18:53;;;;;;;56.55;37.03;;;19.30;99.90;;;;;;5092180;28;20036;-54
2022/08/27 02:21:19;;;;;;;60.28;38.10;;;19.30;99.90;;;;;;5091416;28;20027;-54
2022/08/27 02:23:44;;;;;;;59.00;37.95;;;19.30;99.90;;;;;;5091988;28;20032;-54
2022/08/27 02:26:10;;;;;;;51.88;34.25;;;19.30;99.90;;;;;;5091907;28;20107;-54
2022/08/27 02:28:36;;;;;;;72.15;40.13;;;19.30;99.90;;;;;;5092030;28;20024;-54
2022/08/27 02:31:02;;;;;;;55.03;36.95;;;19.30;99.90;;;;;;5091366;28;20024;-54
2022/08/27 02:33:28;;;;;;;56.72;34.65;;;19.30;99.90;;;;;;5091821;28;20035;-55
2022/08/27 02:35:54;;;;;;;65.47;37.58;;;19.30;99.90;;;;;;5092118;28;20024;-54
2022/08/27 02:38:19;;;;;;;65.32;39.00;;;19.30;99.90;;;;;;5091794;28;20073;-55
2022/08/27 02:40:45;;;;;;;65.28;36.88;;;19.30;99.90;;;;;;5081116;28;20025;-55
2022/08/27 02:43:10;;;;;;;57.03;35.25;;;19.30;99.90;;;;;;5088363;28;20447;-54
2022/08/27 02:45:36;;;;;;;61.53;35.60;;;19.30;99.90;;;;;;5091799;28;20021;-54
2022/08/27 02:48:03;;;;;;;65.10;37.33;;;19.30;99.90;;;;;;5090725;28;20059;-55
2022/08/27 02:50:29;;;;;;;57.97;35.42;;;19.20;99.90;;;;;;5091293;28;20028;-55
2022/08/27 02:52:54;;;;;;;66.20;38.92;;;19.20;99.90;;;;;;5091265;28;20027;-54
2022/08/27 02:55:21;;;;;;;60.17;38.15;;;19.20;99.90;;;;;;5091379;28;20224;-55
2022/08/27 02:57:47;;;;;;;52.13;30.85;;;19.20;99.90;;;;;;5091479;28;20035;-54
2022/08/27 03:00:15;;;;;;;61.97;34.38;;;19.20;99.90;;;;;;5091768;28;20028;-54
2022/08/27 03:02:40;;;;;;;56.85;34.20;;;19.20;99.90;;;;;;5090823;28;20052;-54
2022/08/27 03:05:09;;;;;;;66.20;37.58;;;19.20;99.90;;;;;;5091794;28;20089;-54
2022/08/27 03:07:36;;;;;;;64.50;35.97;;;19.10;99.90;;;;;;5091255;28;20024;-54
2022/08/27 03:10:02;;;;;;;58.53;36.10;;;19.20;99.90;;;;;;5084940;28;20136;-54
2022/08/27 03:12:27;;;;;;;62.25;34.45;;;19.10;99.90;;;;;;5082144;28;20058;-54
2022/08/27 03:14:53;;;;;;;55.22;32.80;;;19.20;99.90;;;;;;5091196;28;20429;-54
2022/08/27 03:20:04;;;;;;;64.25;34.85;;;19.20;99.90;;;;;;5091221;28;20027;-55
2022/08/27 03:22:30;;;;;;;73.70;36.63;;;19.10;99.90;;;;;;5091196;28;20190;-55
2022/08/27 03:24:55;;;;;;;66.80;36.08;;;19.10;99.90;;;;;;5090936;28;20024;-54
2022/08/27 03:27:21;;;;;;;65.70;35.40;;;19.00;99.90;;;;;;5091092;28;20459;-54
2022/08/27 03:29:47;;;;;;;76.10;37.95;;;19.00;99.90;;;;;;5089351;28;20050;-54
2022/08/27 03:32:12;;;;;;;65.82;35.25;;;19.00;99.90;;;;;;5090145;28;20043;-54
2022/08/27 03:34:38;;;;;;;62.03;36.13;;;19.00;99.90;;;;;;5090765;28;20016;-54
2022/08/27 03:37:04;;;;;;;65.50;36.13;;;19.00;99.90;;;;;;5090825;28;20039;-55
2022/08/27 03:39:29;;;;;;;61.65;33.60;;;19.00;99.90;;;;;;5085643;28;20043;-54
2022/08/27 03:41:54;;;;;;;65.45;35.30;;;19.00;99.90;;;;;;5082024;28;20422;-54
2022/08/27 03:44:22;;;;;;;70.43;36.97;;;19.00;99.90;;;;;;5072992;28;20029;-55
2022/08/27 03:46:49;;;;;;;70.45;36.40;;;19.00;99.90;;;;;;5069701;28;20043;-54
2022/08/27 03:49:15;;;;;;;58.38;33.08;;;19.00;99.90;;;;;;5069860;28;20028;-54
2022/08/27 03:51:41;;;;;;;61.22;33.00;;;18.90;99.90;;;;;;5068104;28;20085;-55
2022/08/27 03:54:06;;;;;;;55.00;31.83;;;18.90;99.90;;;;;;5069833;28;20489;-56
2022/08/27 03:56:38;;;;;;;58.92;33.40;;;18.90;99.90;;;;;;5069601;28;20462;-55
2022/08/27 03:59:04;;;;;;;54.60;31.83;;;18.80;99.90;;;;;;5070147;28;20031;-55
2022/08/27 04:01:30;;;;;;;52.67;28.75;;;18.90;99.90;;;;;;5069557;28;20036;-55
2022/08/27 04:03:56;;;;;;;58.00;32.03;;;18.90;99.90;;;;;;5069771;28;20025;-55
2022/08/27 04:06:21;;;;;;;56.28;31.48;;;18.90;99.90;;;;;;5068771;28;20109;-56
2022/08/27 04:08:47;;;;;;;47.75;28.50;;;18.90;99.90;;;;;;5069517;28;20047;-55
2022/08/27 04:11:13;;;;;;;59.22;31.80;;;18.90;99.90;;;;;;5070814;28;20037;-55
2022/08/27 04:13:39;;;;;;;49.90;30.10;;;18.90;99.90;;;;;;5073942;28;20046;-55
2022/08/27 04:16:05;;;;;;;52.28;29.67;;;18.90;99.90;;;;;;5069566;28;20426;-55
2022/08/27 04:18:30;;;;;;;56.50;31.63;;;18.90;99.90;;;;;;5069182;28;20043;-56
2022/08/27 04:20:56;;;;;;;46.80;28.95;;;18.90;99.90;;;;;;5068730;28;20084;-55
2022/08/27 04:23:22;;;;;;;47.17;27.45;;;18.90;99.90;;;;;;5069566;28;20047;-54
2022/08/27 04:25:47;;;;;;;54.15;31.33;;;18.90;99.90;;;;;;5069111;28;20059;-56
2022/08/27 04:28:15;;;;;;;51.08;29.58;;;18.80;99.90;;;;;;5069127;28;20032;-55
2022/08/27 04:30:43;;;;;;;54.72;33.13;;;18.90;99.90;;;;;;5068789;28;20045;-55
2022/08/27 04:33:09;;;;;;;53.75;29.38;;;18.80;99.90;;;;;;5069529;28;20047;-55
2022/08/27 04:35:35;;;;;;;51.40;30.48;;;18.80;99.90;;;;;;5069722;28;20017;-56
2022/08/27 04:38:00;;;;;;;51.17;30.60;;;18.90;99.90;;;;;;5069737;28;20024;-55
2022/08/27 04:41:18;;;;;;;46.83;27.80;;;18.80;99.90;;;;;;5062313;28;20035;-55
2022/08/27 04:43:13;;;;;;;44.03;26.92;;;18.80;99.90;;;;;;5078895;28;20012;-55
2022/08/27 04:45:57;;;;;;;49.28;29.73;;;18.90;99.90;;;;;;5106843;28;20439;-55
2022/08/27 04:48:24;;;;;;;51.22;27.02;;;18.90;99.90;;;;;;5091083;28;20111;-55
2022/08/27 04:50:50;;;;;;;50.08;29.05;;;18.90;99.90;;;;;;5089349;28;20020;-55
2022/08/27 04:53:16;;;;;;;45.90;27.58;;;18.90;99.90;;;;;;5086623;28;20043;-55
2022/08/27 04:55:51;;;;;;;48.60;29.27;;;18.90;99.90;;;;;;5067435;28;20036;-55
2022/08/27 04:58:19;;;;;;;42.75;26.00;;;18.90;99.90;;;;;;5066958;28;20093;-56
2022/08/27 05:00:47;;;;;;;56.80;30.30;;;18.90;99.90;;;;;;5068272;28;20024;-55
2022/08/27 05:03:14;;;;;;;49.55;29.73;;;18.90;99.90;;;;;;5067777;28;20089;-55
2022/08/27 05:05:40;;;;;;;57.33;31.05;;;19.00;99.90;;;;;;5068685;28;20027;-55
2022/08/27 05:08:06;;;;;;;51.65;28.63;;;19.00;99.90;;;;;;5069046;28;20024;-55
2022/08/27 05:10:43;;;;;;;49.97;30.20;;;18.90;99.90;;;;;;5061541;28;20226;-55
2022/08/27 05:13:09;;;;;;;56.60;30.88;;;18.90;99.90;;;;;;5080627;28;20028;-55
2022/08/27 05:15:35;;;;;;;51.25;30.02;;;18.90;99.90;;;;;;5088979;28;20395;-55
2022/08/27 05:18:01;;;;;;;54.00;28.45;;;18.80;99.90;;;;;;5088830;28;20032;-56
2022/08/27 05:20:28;;;;;;;38.28;24.83;;;18.80;99.90;;;;;;5088750;28;20574;-55
2022/08/27 05:22:54;;;;;;;54.53;30.00;;;18.90;99.90;;;;;;5087103;28;20402;-55
2022/08/27 05:25:20;;;;;;;60.80;30.15;;;18.90;99.90;;;;;;5088374;28;20472;-56
2022/08/27 05:27:46;;;;;;;55.72;28.70;;;18.90;99.90;;;;;;5088736;28;20028;-55
2022/08/27 05:30:12;;;;;;;50.83;27.73;;;18.80;99.90;;;;;;5088854;28;20059;-55
2022/08/27 05:32:38;;;;;;;63.85;30.45;;;18.80;99.90;;;;;;5088318;28;20020;-55
2022/08/27 05:35:04;;;;;;;61.97;29.90;;;18.80;99.90;;;;;;5088815;28;20016;-55
2022/08/27 05:37:32;;;;;;;47.30;26.90;;;18.80;99.90;;;;;;5088474;28;20024;-55
2022/08/27 05:39:59;;;;;;;43.15;25.60;;;18.80;99.90;;;;;;5083030;28;20027;-55
2022/08/27 05:42:25;;;;;;;48.97;27.02;;;18.70;99.90;;;;;;5077945;28;20556;-55
2022/08/27 05:44:50;;;;;;;46.00;26.55;;;18.80;99.90;;;;;;5087251;28;20103;-55
2022/08/27 05:47:16;;;;;;;49.33;26.63;;;18.70;99.90;;;;;;5087098;28;20135;-55
2022/08/27 05:49:41;;;;;;;48.90;26.48;;;18.70;99.90;;;;;;5088532;28;20480;-55
2022/08/27 05:52:09;;;;;;;43.42;23.30;;;18.70;99.90;;;;;;5087923;28;20099;-56
2022/08/27 05:54:34;;;;;;;65.47;27.50;;;18.70;99.90;;;;;;5088590;28;20050;-55
2022/08/27 05:57:00;;;;;;;45.00;24.55;;;18.60;99.90;;;;;;5088547;28;20714;-56
2022/08/27 06:02:10;;;;;;;59.03;25.88;;;18.60;99.90;;;;;;5088472;28;20031;-55
2022/08/27 06:04:36;;;;;;;43.83;26.20;;;18.60;99.90;;;;;;5088394;28;20425;-55
2022/08/27 06:07:02;;;;;;;50.22;24.70;;;18.60;99.90;;;;;;5088169;28;20395;-55
2022/08/27 06:09:28;;;;;;;49.13;25.98;;;18.60;99.90;;;;;;5088006;28;20027;-55
2022/08/27 06:11:57;;;;;;;51.78;26.25;;;18.60;99.90;;;;;;5070237;28;20507;-55
2022/08/27 06:14:23;;;;;;;49.87;26.20;;;18.60;99.90;;;;;;5086555;28;20031;-56
2022/08/27 06:16:49;;;;;;;51.35;27.23;;;18.60;99.90;;;;;;5088224;28;20178;-55
2022/08/27 06:19:15;;;;;;;49.78;25.63;;;18.60;99.90;;;;;;5088236;28;20036;-55
2022/08/27 06:21:41;;;;;;;54.50;25.30;;;18.60;99.90;;;;;;5087483;28;20032;-55
2022/08/27 06:24:08;;;;;;;55.50;26.58;;;18.50;99.90;;;;;;5088566;28;20154;-55
2022/08/27 06:26:35;;;;;;;50.90;25.90;;;18.50;99.90;;;;;;5070313;28;20021;-56
2022/08/27 06:29:03;;;;;;;49.45;26.55;;;18.50;99.90;;;;;;5068804;28;20479;-55
2022/08/27 06:31:28;;;;;;;47.67;25.08;;;18.50;99.90;;;;;;5068764;28;20529;-55
2022/08/27 06:33:58;;;;;;;50.38;25.90;;;18.50;99.90;;;;;;5069261;28;20021;-56
2022/08/27 06:36:25;;;;;;;46.80;23.70;;;18.50;99.90;;;;;;5069274;28;20023;-55
2022/08/27 06:38:51;;;;;;;46.33;25.48;;;18.60;99.90;;;;;;5069064;28;20483;-56
2022/08/27 06:41:22;;;;;;;44.45;24.50;;;18.60;99.90;;;;;;5070137;28;20031;-55
2022/08/27 06:43:48;;;;;;;49.33;23.75;;;18.60;99.90;;;;;;5072772;28;20029;-56
2022/08/27 06:46:17;;;;;;;39.97;24.67;;;18.60;99.90;;;;;;5069126;28;20021;-55
2022/08/27 06:48:44;;;;;;;44.45;24.17;;;18.60;99.90;;;;;;5068976;28;20021;-56
2022/08/27 06:51:13;;;;;;;44.97;23.05;;;18.60;99.90;;;;;;5071203;28;20021;-56
2022/08/27 06:53:39;;;;;;;45.45;22.70;;;18.60;99.90;;;;;;5072669;28;20041;-56
2022/08/27 06:56:05;;;;;;;38.80;22.02;;;18.60;99.90;;;;;;5072227;28;20454;-56
2022/08/27 06:58:32;;;;;;;36.30;20.40;;;18.60;99.90;;;;;;5072502;28;20111;-56
2022/08/27 07:00:58;;;;;;;46.42;23.58;;;18.60;99.90;;;;;;5071885;28;20452;-56
2022/08/27 07:03:23;;;;;;;39.17;22.88;;;18.60;99.90;;;;;;5072561;28;20036;-55
2022/08/27 07:05:49;;;;;;;38.38;21.75;;;18.60;99.90;;;;;;5072416;28;20029;-56
2022/08/27 07:08:14;;;;;;;42.30;21.42;;;18.70;99.90;;;;;;5071024;28;20051;-56
2022/08/27 07:10:40;;;;;;;42.17;21.42;;;18.70;99.90;;;;;;5071136;28;20068;-56
2022/08/27 07:13:05;;;;;;;44.58;22.80;;;18.70;99.90;;;;;;5076312;28;20024;-55
2022/08/27 07:15:31;;;;;;;43.15;26.15;;;18.70;99.90;;;;;;5072369;28;20546;-56
2022/08/27 07:17:57;;;;;;;52.40;23.27;;;18.80;99.90;;;;;;5072155;28;20050;-56
2022/08/27 07:20:24;;;;;;;43.38;22.52;;;18.80;99.90;;;;;;5070836;28;20032;-55
2022/08/27 07:22:50;;;;;;;54.42;23.52;;;18.70;99.90;;;;;;5069819;28;20115;-55
2022/08/27 07:25:19;;;;;;;38.63;20.45;;;18.70;99.90;;;;;;5067137;28;20484;-55
2022/08/27 07:27:48;;;;;;;42.22;20.77;;;18.80;99.90;;;;;;5071327;28;20107;-55
2022/08/27 07:30:15;;;;;;;42.70;18.95;;;18.70;99.90;;;;;;5069597;28;20028;-56
2022/08/27 07:32:42;;;;;;;35.95;18.95;;;18.80;99.90;;;;;;5069084;28;20116;-56
2022/08/27 07:35:08;;;;;;;51.10;20.33;;;18.80;99.90;;;;;;5069681;28;20099;-56
2022/08/27 07:37:39;;;;;;;40.95;19.20;;;18.80;99.90;;;;;;5069620;28;20163;-56
2022/08/27 07:40:13;;;;;;;40.75;20.75;;;18.80;99.90;;;;;;5069479;28;20487;-56
2022/08/27 07:45:25;;;;;;;39.10;18.67;;;18.80;99.90;;;;;;5069820;28;20171;-56
2022/08/27 07:47:51;;;;;;;37.75;19.85;;;18.80;99.90;;;;;;5069490;28;20035;-56
2022/08/27 07:50:17;;;;;;;42.55;19.27;;;18.80;99.90;;;;;;5069575;28;20116;-56
2022/08/27 07:52:43;;;;;;;36.78;20.33;;;18.80;99.90;;;;;;5069002;28;20031;-56
2022/08/27 07:55:12;;;;;;;34.35;19.08;;;18.90;99.90;;;;;;5069075;28;20024;-56
2022/08/27 07:57:39;;;;;;;36.20;17.77;;;18.90;99.90;;;;;;5067921;28;20024;-56
2022/08/27 08:00:09;;;;;;;30.85;18.90;;;18.90;99.90;;;;;;5069574;28;20050;-56
2022/08/27 08:02:34;;;;;;;51.30;21.15;;;18.90;99.90;;;;;;5066861;28;20033;-56
2022/08/27 08:05:00;;;;;;;40.65;18.67;;;18.90;99.90;;;;;;5069350;28;20070;-55
2022/08/27 08:07:26;;;;;;;32.75;18.60;;;18.90;99.90;;;;;;5069253;28;20059;-56
2022/08/27 08:09:51;;;;;;;32.83;17.45;;;18.90;99.90;;;;;;5069690;28;20025;-56
2022/08/27 08:12:16;;;;;;;40.28;19.85;;;19.00;99.90;;;;;;5072088;28;20019;-56
2022/08/27 08:14:42;;;;;;;42.45;20.60;;;19.00;99.90;;;;;;5070988;28;20033;-56
2022/08/27 08:17:08;;;;;;;32.70;17.20;;;19.00;99.90;;;;;;5069318;28;20024;-56
2022/08/27 08:19:33;;;;;;;35.35;18.85;;;19.00;99.90;;;;;;5068823;28;20562;-55
2022/08/27 08:21:59;;;;;;;39.95;21.27;;;19.00;99.90;;;;;;5068659;28;20495;-56
2022/08/27 08:24:25;;;;;;;30.23;18.20;;;19.10;99.90;;;;;;5069237;28;20388;-56
2022/08/27 08:26:50;;;;;;;39.83;19.50;;;19.10;99.90;;;;;;5068641;28;20029;-56
2022/08/27 08:29:16;;;;;;;33.67;18.65;;;19.10;99.90;;;;;;5069513;28;20029;-55
2022/08/27 08:31:42;;;;;;;40.28;19.38;;;19.20;99.90;;;;;;5068425;28;20027;-54
2022/08/27 08:34:08;;;;;;;38.45;20.77;;;19.20;99.90;;;;;;5067777;28;20016;-55
2022/08/27 08:36:34;;;;;;;39.28;20.35;;;19.10;99.90;;;;;;5068849;28;20044;-56
2022/08/27 08:38:59;;;;;;;41.30;21.27;;;19.10;99.90;;;;;;5069143;28;20020;-56
2022/08/27 08:41:37;;;;;;;35.33;19.17;;;19.10;99.90;;;;;;5070223;28;20031;-56
2022/08/27 08:44:30;;;;;;;31.08;18.08;;;19.30;99.90;;;;;;5069624;28;20028;-56
2022/08/27 08:47:06;;;;;;;36.58;19.95;;;19.30;99.90;;;;;;5055663;28;20380;-56
2022/08/27 08:49:41;;;;;;;30.35;18.95;;;19.30;99.90;;;;;;5068887;28;20024;-56
2022/08/27 08:52:32;;;;;;;32.70;19.70;;;19.40;99.90;;;;;;5068119;28;20012;-55
2022/08/27 08:55:03;;;;;;;33.97;18.73;;;19.40;99.90;;;;;;5066358;28;20027;-55
2022/08/27 08:57:39;;;;;;;27.77;18.33;;;19.50;99.90;;;;;;5068542;28;20028;-55
2022/08/27 09:00:11;;;;;;;33.22;18.15;;;19.50;99.90;;;;;;5067270;28;20016;-56
2022/08/27 09:02:37;;;;;;;35.00;19.70;;;19.50;99.90;;;;;;5067883;28;20480;-55
2022/08/27 09:05:05;;;;;;;31.48;20.15;;;19.60;99.90;;;;;;5068807;28;20032;-55
2022/08/27 09:07:55;;;;;;;56.67;28.52;;;19.60;99.90;;;;;;5068734;28;20037;-55
2022/08/27 09:10:27;;;;;;;41.65;23.55;;;19.70;99.90;;;;;;5068822;28;20103;-55
2022/08/27 09:12:57;;;;;;;38.97;20.65;;;19.70;99.90;;;;;;5075715;28;20025;-55
2022/08/27 09:15:27;;;;;;;34.20;21.02;;;19.80;99.90;;;;;;5087674;28;20467;-55
2022/08/27 09:18:07;;;;;;;37.90;20.35;;;19.80;99.90;;;;;;5088582;28;20086;-54
2022/08/27 09:20:33;;;;;;;35.67;20.42;;;19.90;99.90;;;;;;5086654;28;20503;-60
2022/08/27 09:23:22;;;;;;;28.20;18.60;;;20.00;99.90;;;;;;5076233;28;20016;-55
2022/08/27 09:25:48;;;;;;;28.55;17.70;;;20.10;99.90;;;;;;5048620;28;20112;-55
2022/08/27 09:31:07;;;;;;;34.83;19.20;;;20.00;99.90;;;;;;5086435;28;20097;-55
2022/08/27 09:33:33;;;;;;;32.85;18.08;;;20.00;99.90;;;;;;5079005;28;20077;-54
2022/08/27 09:36:07;;;;;;;35.92;17.98;;;20.00;99.90;;;;;;5088677;28;20228;-54
2022/08/27 09:38:35;;;;;;;27.98;17.30;;;20.00;99.90;;;;;;5077801;28;20067;-55
2022/08/27 09:41:08;;;;;;;28.38;17.30;;;20.00;99.90;;;;;;5082825;28;20028;-55
2022/08/27 09:43:35;;;;;;;29.33;16.88;;;19.90;99.90;;;;;;5087151;28;20032;-54
2022/08/27 09:46:06;;;;;;;30.02;17.20;;;19.90;99.90;;;;;;5088082;28;20283;-54
2022/08/27 09:48:34;;;;;;;29.17;18.05;;;20.00;99.90;;;;;;5079167;28;20399;-54
2022/08/27 09:51:13;;;;;;;38.33;18.13;;;20.00;99.90;;;;;;5087500;28;20020;-55
2022/08/27 09:53:56;;;;;;;22.13;16.17;;;19.90;99.90;;;;;;5088522;28;20024;-55
2022/08/27 09:56:27;;;;;;;27.83;17.45;;;19.90;99.90;;;;;;5086893;28;20208;-55
2022/08/27 09:59:04;;;;;;;29.65;16.83;;;19.90;99.90;;;;;;5079900;28;20475;-55
2022/08/27 10:01:32;;;;;;;30.75;18.73;;;19.90;99.90;;;;;;5084321;28;20074;-55
2022/08/27 10:04:14;;;;;;;30.48;19.45;;;20.00;99.90;;;;;;5076256;28;20539;-55
2022/08/27 10:06:47;;;;;;;33.42;18.63;;;20.00;99.90;;;;;;5047917;28;20025;-56
2022/08/27 10:09:33;;;;;;;26.35;18.80;;;20.00;99.90;;;;;;5048045;28;20029;-55
2022/08/27 10:12:06;;;;;;;36.70;18.95;;;20.10;99.90;;;;;;5059366;28;20376;-55
2022/08/27 10:14:37;;;;;;;34.38;19.90;;;20.10;99.90;;;;;;5072923;28;20017;-55
2022/08/27 10:17:34;;;;;;;35.33;20.92;;;20.10;99.90;;;;;;5067228;28;20471;-56
2022/08/27 10:20:29;;;;;;;35.88;19.80;;;20.20;99.90;;;;;;5066149;28;20039;-55
2022/08/27 10:23:13;;;;;;;29.30;17.70;;;20.20;99.90;;;;;;5065748;28;20023;-56
2022/08/27 10:25:45;;;;;;;34.85;17.60;;;20.40;99.90;;;;;;5074834;28;20020;-56
2022/08/27 10:28:32;;;;;;;38.25;19.00;;;20.40;99.90;;;;;;5074906;28;20020;-56
2022/08/27 10:31:10;;;;;;;28.60;16.83;;;20.50;99.90;;;;;;5086207;28;20418;-56
2022/08/27 10:34:00;;;;;;;30.27;18.38;;;20.50;99.90;;;;;;5087966;28;20097;-56
2022/08/27 10:36:56;;;;;;;29.00;17.90;;;20.40;99.90;;;;;;5083730;28;20404;-56
2022/08/27 10:39:43;;;;;;;31.58;18.88;;;20.50;99.90;;;;;;5088453;28;20044;-55
2022/08/27 10:42:26;;;;;;;29.38;18.17;;;20.30;99.90;;;;;;5087449;28;20020;-55
2022/08/27 10:45:07;;;;;;;34.25;19.08;;;20.30;99.90;;;;;;5088485;28;20080;-56
2022/08/27 10:47:47;;;;;;;35.83;19.38;;;20.30;99.90;;;;;;5082623;28;20558;-55
2022/08/27 10:50:33;;;;;;;31.25;18.55;;;20.30;99.90;;;;;;5091157;28;20028;-55
2022/08/27 10:53:10;;;;;;;35.33;19.38;;;20.20;99.90;;;;;;5074421;28;20471;-56
2022/08/27 10:55:41;;;;;;;36.90;17.75;;;20.20;99.90;;;;;;5051341;28;20025;-56
2022/08/27 10:58:48;;;;;;;30.67;18.88;;;20.20;99.90;;;;;;5066322;28;20095;-56
2022/08/27 11:01:34;;;;;;;34.22;19.42;;;20.20;99.90;;;;;;5084284;28;20035;-54
2022/08/27 11:04:31;;;;;;;32.88;18.65;;;20.10;99.90;;;;;;5091593;28;20035;-56
2022/08/27 11:07:05;;;;;;;28.52;17.77;;;20.10;99.90;;;;;;5076047;28;20089;-56
2022/08/27 11:09:47;;;;;;;32.67;18.70;;;20.10;99.90;;;;;;5088770;28;20032;-55
2022/08/27 11:12:17;;;;;;;25.25;17.48;;;20.00;99.90;;;;;;5078564;28;20062;-55
2022/08/27 11:14:59;;;;;;;34.35;19.30;;;20.00;99.90;;;;;;5091779;28;20445;-55
2022/08/27 11:17:34;;;;;;;33.15;17.90;;;20.00;99.90;;;;;;5091084;28;20330;-56
2022/08/27 11:20:25;;;;;;;34.72;19.23;;;20.00;99.90;;;;;;5091208;28;20055;-56
2022/08/27 11:23:03;;;;;;;29.15;18.42;;;20.00;99.90;;;;;;5084128;28;20032;-56
2022/08/27 11:25:53;;;;;;;38.38;20.63;;;20.00;99.90;;;;;;5083866;28;20206;-55
2022/08/27 11:28:21;;;;;;;31.25;18.90;;;19.90;99.90;;;;;;5082471;28;20503;-55
2022/08/27 11:30:47;;;;;;;27.80;19.08;;;19.90;99.90;;;;;;5090340;28;20028;-55
2022/08/27 11:33:26;;;;;;;30.95;18.90;;;19.90;99.90;;;;;;5090988;28;20133;-56
2022/08/27 11:36:30;;;;;;;32.20;20.17;;;19.90;99.90;;;;;;5086938;28;20478;-55
2022/08/27 11:39:10;;;;;;;30.88;16.98;;;19.90;99.90;;;;;;5074120;28;20353;-55
2022/08/27 11:41:49;;;;;;;24.05;15.10;;;19.90;99.90;;;;;;5069837;28;20025;-56
2022/08/27 11:44:18;;;;;;;23.27;15.80;;;19.90;99.90;;;;;;5063045;28;20025;-55
2022/08/27 11:46:55;;;;;;;33.67;16.33;;;20.00;99.90;;;;;;5072299;28;20028;-55
2022/08/27 11:49:25;;;;;;;26.15;15.55;;;20.00;99.90;;;;;;5080342;28;20048;-56
2022/08/27 11:52:34;;;;;;;21.20;14.32;;;20.10;99.90;;;;;;5089668;28;20027;-55
2022/08/27 11:55:21;;;;;;;28.35;14.38;;;20.10;99.90;;;;;;5079506;28;20032;-55
2022/08/27 11:57:49;;;;;;;25.85;13.93;;;20.10;99.90;;;;;;5080690;28;20051;-55
2022/08/27 12:00:24;;;;;;;28.23;13.20;;;20.20;99.90;;;;;;5082189;28;20398;-55
2022/08/27 12:03:20;;;;;;;24.45;13.88;;;20.20;99.90;;;;;;5084574;28;20013;-53
2022/08/27 12:06:08;;;;;;;21.75;13.23;;;20.20;99.90;;;;;;5065943;28;20087;-52
2022/08/27 12:08:35;;;;;;;21.45;12.68;;;20.20;99.90;;;;;;5069655;28;20103;-53
2022/08/27 12:11:07;;;;;;;27.88;12.60;;;20.30;99.90;;;;;;5069899;28;20120;-56
2022/08/27 12:14:00;;;;;;;27.73;12.80;;;20.40;99.90;;;;;;5069685;28;20391;-55
2022/08/27 12:17:00;;;;;;;20.55;11.57;;;20.40;99.90;;;;;;5070072;28;20056;-55
2022/08/27 12:19:47;;;;;;;22.92;11.52;;;20.40;99.90;;;;;;5054903;28;20052;-55
2022/08/27 12:23:38;;;;;;;24.83;11.50;;;20.40;99.90;;;;;;5081076;28;20107;-55
2022/08/27 12:25:22;;;;;;;24.75;11.77;;;20.50;99.90;;;;;;5082283;28;20028;-55
2022/08/27 12:27:58;;;;;;;18.33;10.20;;;20.50;99.90;;;;;;5083238;28;20020;-56
2022/08/27 12:30:39;;;;;;;22.80;10.77;;;20.50;99.90;;;;;;5089269;28;20031;-55
2022/08/27 12:33:13;;;;;;;19.95;9.73;;;20.60;99.90;;;;;;5082232;28;20084;-55
2022/08/27 12:35:45;;;;;;;22.98;10.98;;;20.60;99.90;;;;;;5077296;28;20464;-56
2022/08/27 12:38:17;;;;;;;22.05;11.40;;;20.70;99.90;;;;;;5067951;28;20440;-55
2022/08/27 12:40:50;;;;;;;22.13;11.30;;;20.70;99.90;;;;;;5080064;28;20040;-55
2022/08/27 12:43:21;;;;;;;17.17;10.20;;;20.80;99.90;;;;;;5089337;28;20024;-56
2022/08/27 12:45:50;;;;;;;17.98;10.95;;;20.80;99.90;;;;;;5088910;28;20024;-56
2022/08/27 12:48:24;;;;;;;21.60;11.88;;;20.90;99.90;;;;;;5081664;28;20016;-55
2022/08/27 12:51:02;;;;;;;20.73;10.40;;;20.80;99.90;;;;;;5079882;28;20024;-55
2022/08/27 12:53:42;;;;;;;18.35;10.18;;;20.90;99.90;;;;;;5084859;28;20443;-56
2022/08/27 12:56:21;;;;;;;;;;;20.80;99.90;;;;;;5080700;28;20052;-55
2022/08/27 12:58:54;;;;;;;23.33;11.20;;;20.70;99.90;;;;;;5086833;28;19955;-56